Gaines, Michigan
Current Conditions -  °F | °C
As of 10:09 AM on Thursday 23 Oct 2014 (Local Time) from KFNT Reporting Station
Moderate Fog Moderate Fog  
Wind Chill: 36°   Ceiling: 200
Heat Index: 36°   Visibility: 0mi
Dew Point: 34°   Wind: 0mph
Humidity: 93%   Direction: NA
Pressure: 30.26"   Gusts: NA
Location:  42.87°N, 83.91°W
Report Text: KFNT 231409Z 00000KT M1/4SM R09/2200VP6000FT FG VV002 02/01 A3026 RMK AO2 I1000 T00220011
Loading
Personal Weather Stations






























Interactive Weather Map
Tropical Storm Tracking
New forecast layout! Learn more

10-Day Weather Forecast

Advertisements
Track Severe Weather on mobile